<?xml version="1.0" encoding="UTF-8" standalone="no" ?><gpx xmlns="http://www.topografix.com/GPX/1/1" xmlns:gpxx="http://www.garmin.com/xmlschemas/GpxExtensions/v3" xmlns:wptx1="http://www.garmin.com/xmlschemas/WaypointExtension/v1" xmlns:gpxtpx="http://www.garmin.com/xmlschemas/TrackPointExtension/v1" creator="GuideVTT.com" version="1.1" xmlns:xsi="http://www.w3.org/2001/XMLSchema-instance" xsi:schemaLocation="http://www.topografix.com/GPX/1/1 http://www.topografix.com/GPX/1/1/gpx.xsd http://www.garmin.com/xmlschemas/GpxExtensions/v3 http://www8.garmin.com/xmlschemas/GpxExtensionsv3.xsd http://www.garmin.com/xmlschemas/WaypointExtension/v1 http://www8.garmin.com/xmlschemas/WaypointExtensionv1.xsd http://www.garmin.com/xmlschemas/TrackPointExtension/v1 http://www.garmin.com/xmlschemas/TrackPointExtensionv1.xsd">
<metadata><link href="http://www.garmin.com"><text>Garmin International</text></link><time>2013-06-22T15:13:50Z</time></metadata>
<trk><name>waldspitz.gpx</name><extensions><gpxx:TrackExtension><gpxx:DisplayColor>Cyan</gpxx:DisplayColor></gpxx:TrackExtension></extensions><trkseg>
<trkpt lat="46.624523000" lon="8.033565000"><ele></ele><time>2013-7-24T11:21:26Z</time></trkpt>
<trkpt lat="46.624447000" lon="8.034295000"><ele></ele><time>2013-7-24T11:21:29Z</time></trkpt>
<trkpt lat="46.624199000" lon="8.033692000"><ele></ele><time>2013-7-24T11:21:32Z</time></trkpt>
<trkpt lat="46.624013000" lon="8.033050000"><ele></ele><time>2013-7-24T11:21:35Z</time></trkpt>
<trkpt lat="46.624179000" lon="8.032216000"><ele></ele><time>2013-7-24T11:21:38Z</time></trkpt>
<trkpt lat="46.624371000" lon="8.031670000"><ele></ele><time>2013-7-24T11:21:41Z</time></trkpt>
<trkpt lat="46.624462000" lon="8.031449000"><ele></ele><time>2013-7-24T11:21:44Z</time></trkpt>
<trkpt lat="46.624912000" lon="8.031493000"><ele></ele><time>2013-7-24T11:21:47Z</time></trkpt>
<trkpt lat="46.625128000" lon="8.031365000"><ele></ele><time>2013-7-24T11:21:50Z</time></trkpt>
<trkpt lat="46.625612000" lon="8.029934000"><ele></ele><time>2013-7-24T11:21:53Z</time></trkpt>
<trkpt lat="46.626385000" lon="8.028479000"><ele></ele><time>2013-7-24T11:21:56Z</time></trkpt>
<trkpt lat="46.626639000" lon="8.027921000"><ele></ele><time>2013-7-24T11:21:59Z</time></trkpt>
<trkpt lat="46.626704000" lon="8.027556000"><ele></ele><time>2013-7-24T11:22:2Z</time></trkpt>
<trkpt lat="46.627061000" lon="8.026319000"><ele></ele><time>2013-7-24T11:22:5Z</time></trkpt>
<trkpt lat="46.627314000" lon="8.026100000"><ele></ele><time>2013-7-24T11:22:8Z</time></trkpt>
<trkpt lat="46.627730000" lon="8.025739000"><ele></ele><time>2013-7-24T11:22:11Z</time></trkpt>
<trkpt lat="46.628266000" lon="8.024726000"><ele></ele><time>2013-7-24T11:22:14Z</time></trkpt>
<trkpt lat="46.628656000" lon="8.024130000"><ele></ele><time>2013-7-24T11:22:17Z</time></trkpt>
<trkpt lat="46.628932000" lon="8.024733000"><ele></ele><time>2013-7-24T11:22:20Z</time></trkpt>
<trkpt lat="46.628964000" lon="8.025374000"><ele></ele><time>2013-7-24T11:22:23Z</time></trkpt>
<trkpt lat="46.628708000" lon="8.026246000"><ele></ele><time>2013-7-24T11:22:26Z</time></trkpt>
<trkpt lat="46.628707000" lon="8.026428000"><ele></ele><time>2013-7-24T11:22:29Z</time></trkpt>
<trkpt lat="46.628797000" lon="8.026482000"><ele></ele><time>2013-7-24T11:22:32Z</time></trkpt>
<trkpt lat="46.628924000" lon="8.026209000"><ele></ele><time>2013-7-24T11:22:35Z</time></trkpt>
<trkpt lat="46.629050000" lon="8.026158000"><ele></ele><time>2013-7-24T11:22:38Z</time></trkpt>
<trkpt lat="46.629111000" lon="8.026668000"><ele></ele><time>2013-7-24T11:22:41Z</time></trkpt>
<trkpt lat="46.629076000" lon="8.028143000"><ele></ele><time>2013-7-24T11:22:44Z</time></trkpt>
<trkpt lat="46.628972000" lon="8.029147000"><ele></ele><time>2013-7-24T11:22:47Z</time></trkpt>
<trkpt lat="46.629160000" lon="8.029202000"><ele></ele><time>2013-7-24T11:22:50Z</time></trkpt>
<trkpt lat="46.629234000" lon="8.028876000"><ele></ele><time>2013-7-24T11:22:53Z</time></trkpt>
<trkpt lat="46.629327000" lon="8.028329000"><ele></ele><time>2013-7-24T11:22:56Z</time></trkpt>
<trkpt lat="46.630061000" lon="8.027227000"><ele></ele><time>2013-7-24T11:22:59Z</time></trkpt>
<trkpt lat="46.630188000" lon="8.027045000"><ele></ele><time>2013-7-24T11:23:2Z</time></trkpt>
<trkpt lat="46.630291000" lon="8.026263000"><ele></ele><time>2013-7-24T11:23:5Z</time></trkpt>
<trkpt lat="46.630897000" lon="8.025721000"><ele></ele><time>2013-7-24T11:23:8Z</time></trkpt>
<trkpt lat="46.631051000" lon="8.025357000"><ele></ele><time>2013-7-24T11:23:11Z</time></trkpt>
<trkpt lat="46.631116000" lon="8.024940000"><ele></ele><time>2013-7-24T11:23:14Z</time></trkpt>
<trkpt lat="46.632423000" lon="8.024445000"><ele></ele><time>2013-7-24T11:23:17Z</time></trkpt>
<trkpt lat="46.632579000" lon="8.023950000"><ele></ele><time>2013-7-24T11:23:20Z</time></trkpt>
<trkpt lat="46.632679000" lon="8.023677000"><ele></ele><time>2013-7-24T11:23:23Z</time></trkpt>
<trkpt lat="46.631923000" lon="8.022010000"><ele></ele><time>2013-7-24T11:23:26Z</time></trkpt>
<trkpt lat="46.632025000" lon="8.021371000"><ele></ele><time>2013-7-24T11:23:29Z</time></trkpt>
<trkpt lat="46.632242000" lon="8.021139000"><ele></ele><time>2013-7-24T11:23:32Z</time></trkpt>
<trkpt lat="46.632568000" lon="8.020868000"><ele></ele><time>2013-7-24T11:23:35Z</time></trkpt>
<trkpt lat="46.632790000" lon="8.019669000"><ele></ele><time>2013-7-24T11:23:38Z</time></trkpt>
<trkpt lat="46.632920000" lon="8.018848000"><ele></ele><time>2013-7-24T11:23:41Z</time></trkpt>
<trkpt lat="46.632922000" lon="8.018299000"><ele></ele><time>2013-7-24T11:23:44Z</time></trkpt>
<trkpt lat="46.634484000" lon="8.017297000"><ele></ele><time>2013-7-24T11:23:47Z</time></trkpt>
<trkpt lat="46.634638000" lon="8.017038000"><ele></ele><time>2013-7-24T11:23:50Z</time></trkpt>
<trkpt lat="46.634739000" lon="8.016621000"><ele></ele><time>2013-7-24T11:23:53Z</time></trkpt>
<trkpt lat="46.634778000" lon="8.016073000"><ele></ele><time>2013-7-24T11:23:56Z</time></trkpt>
<trkpt lat="46.635185000" lon="8.015568000"><ele></ele><time>2013-7-24T11:23:59Z</time></trkpt>
<trkpt lat="46.635599000" lon="8.015481000"><ele></ele><time>2013-7-24T11:24:2Z</time></trkpt>
<trkpt lat="46.636300000" lon="8.015723000"><ele></ele><time>2013-7-24T11:24:5Z</time></trkpt>
<trkpt lat="46.636642000" lon="8.015727000"><ele></ele><time>2013-7-24T11:24:8Z</time></trkpt>
<trkpt lat="46.637182000" lon="8.015550000"><ele></ele><time>2013-7-24T11:24:11Z</time></trkpt>
<trkpt lat="46.637563000" lon="8.015044000"><ele></ele><time>2013-7-24T11:24:14Z</time></trkpt>
<trkpt lat="46.637688000" lon="8.015137000"><ele></ele><time>2013-7-24T11:24:17Z</time></trkpt>
<trkpt lat="46.637497000" lon="8.015592000"><ele></ele><time>2013-7-24T11:24:20Z</time></trkpt>
<trkpt lat="46.636827000" lon="8.016369000"><ele></ele><time>2013-7-24T11:24:23Z</time></trkpt>
<trkpt lat="46.636445000" lon="8.017187000"><ele></ele><time>2013-7-24T11:24:26Z</time></trkpt>
<trkpt lat="46.636218000" lon="8.017655000"><ele></ele><time>2013-7-24T11:24:29Z</time></trkpt>
<trkpt lat="46.636350000" lon="8.018244000"><ele></ele><time>2013-7-24T11:24:32Z</time></trkpt>
<trkpt lat="46.636536000" lon="8.018808000"><ele></ele><time>2013-7-24T11:24:35Z</time></trkpt>
<trkpt lat="46.636852000" lon="8.018667000"><ele></ele><time>2013-7-24T11:24:38Z</time></trkpt>
<trkpt lat="46.637138000" lon="8.018906000"><ele></ele><time>2013-7-24T11:24:41Z</time></trkpt>
<trkpt lat="46.637162000" lon="8.019507000"><ele></ele><time>2013-7-24T11:24:44Z</time></trkpt>
<trkpt lat="46.637537000" lon="8.020190000"><ele></ele><time>2013-7-24T11:24:47Z</time></trkpt>
<trkpt lat="46.637635000" lon="8.020334000"><ele></ele><time>2013-7-24T11:24:50Z</time></trkpt>
<trkpt lat="46.637887000" lon="8.020194000"><ele></ele><time>2013-7-24T11:24:53Z</time></trkpt>
<trkpt lat="46.637925000" lon="8.019972000"><ele></ele><time>2013-7-24T11:24:56Z</time></trkpt>
<trkpt lat="46.638491000" lon="8.020017000"><ele></ele><time>2013-7-24T11:24:59Z</time></trkpt>
<trkpt lat="46.638744000" lon="8.019746000"><ele></ele><time>2013-7-24T11:25:2Z</time></trkpt>
<trkpt lat="46.638875000" lon="8.018872000"><ele></ele><time>2013-7-24T11:25:5Z</time></trkpt>
<trkpt lat="46.638753000" lon="8.018139000"><ele></ele><time>2013-7-24T11:25:8Z</time></trkpt>
<trkpt lat="46.638756000" lon="8.017447000"><ele></ele><time>2013-7-24T11:25:11Z</time></trkpt>
<trkpt lat="46.638947000" lon="8.017123000"><ele></ele><time>2013-7-24T11:25:14Z</time></trkpt>
<trkpt lat="46.639106000" lon="8.017542000"><ele></ele><time>2013-7-24T11:25:17Z</time></trkpt>
<trkpt lat="46.639067000" lon="8.018143000"><ele></ele><time>2013-7-24T11:25:20Z</time></trkpt>
<trkpt lat="46.639227000" lon="8.018510000"><ele></ele><time>2013-7-24T11:25:23Z</time></trkpt>
<trkpt lat="46.639449000" lon="8.019061000"><ele></ele><time>2013-7-24T11:25:26Z</time></trkpt>
<trkpt lat="46.639509000" lon="8.019715000"><ele></ele><time>2013-7-24T11:25:29Z</time></trkpt>
<trkpt lat="46.639444000" lon="8.020171000"><ele></ele><time>2013-7-24T11:25:32Z</time></trkpt>
<trkpt lat="46.639506000" lon="8.020355000"><ele></ele><time>2013-7-24T11:25:35Z</time></trkpt>
<trkpt lat="46.639596000" lon="8.020355000"><ele></ele><time>2013-7-24T11:25:38Z</time></trkpt>
<trkpt lat="46.639787000" lon="8.019848000"><ele></ele><time>2013-7-24T11:25:41Z</time></trkpt>
<trkpt lat="46.640104000" lon="8.019394000"><ele></ele><time>2013-7-24T11:25:44Z</time></trkpt>
<trkpt lat="46.640432000" lon="8.018575000"><ele></ele><time>2013-7-24T11:25:47Z</time></trkpt>
<trkpt lat="46.640714000" lon="8.018108000"><ele></ele><time>2013-7-24T11:25:50Z</time></trkpt>
<trkpt lat="46.641504000" lon="8.018299000"><ele></ele><time>2013-7-24T11:25:53Z</time></trkpt>
<trkpt lat="46.641982000" lon="8.018174000"><ele></ele><time>2013-7-24T11:25:56Z</time></trkpt>
<trkpt lat="46.642080000" lon="8.018358000"><ele></ele><time>2013-7-24T11:25:59Z</time></trkpt>
<trkpt lat="46.642039000" lon="8.019363000"><ele></ele><time>2013-7-24T11:26:2Z</time></trkpt>
<trkpt lat="46.641785000" lon="8.019778000"><ele></ele><time>2013-7-24T11:26:5Z</time></trkpt>
<trkpt lat="46.641676000" lon="8.021658000"><ele></ele><time>2013-7-24T11:26:8Z</time></trkpt>
<trkpt lat="46.641900000" lon="8.021895000"><ele></ele><time>2013-7-24T11:26:11Z</time></trkpt>
<trkpt lat="46.642505000" lon="8.021445000"><ele></ele><time>2013-7-24T11:26:14Z</time></trkpt>
<trkpt lat="46.643270000" lon="8.021309000"><ele></ele><time>2013-7-24T11:26:17Z</time></trkpt>
<trkpt lat="46.643776000" lon="8.020857000"><ele></ele><time>2013-7-24T11:26:20Z</time></trkpt>
<trkpt lat="46.643966000" lon="8.020729000"><ele></ele><time>2013-7-24T11:26:23Z</time></trkpt>
<trkpt lat="46.643969000" lon="8.020037000"><ele></ele><time>2013-7-24T11:26:26Z</time></trkpt>
<trkpt lat="46.643999000" lon="8.019527000"><ele></ele><time>2013-7-24T11:26:29Z</time></trkpt>
<trkpt lat="46.644482000" lon="8.018331000"><ele></ele><time>2013-7-24T11:26:32Z</time></trkpt>
<trkpt lat="46.644484000" lon="8.017835000"><ele></ele><time>2013-7-24T11:26:35Z</time></trkpt>
<trkpt lat="46.644611000" lon="8.017653000"><ele></ele><time>2013-7-24T11:26:38Z</time></trkpt>
<trkpt lat="46.644672000" lon="8.018111000"><ele></ele><time>2013-7-24T11:26:41Z</time></trkpt>
<trkpt lat="46.644668000" lon="8.018803000"><ele></ele><time>2013-7-24T11:26:44Z</time></trkpt>
<trkpt lat="46.644540000" lon="8.019259000"><ele></ele><time>2013-7-24T11:26:47Z</time></trkpt>
<trkpt lat="46.644573000" lon="8.019769000"><ele></ele><time>2013-7-24T11:26:50Z</time></trkpt>
<trkpt lat="46.644697000" lon="8.020227000"><ele></ele><time>2013-7-24T11:26:53Z</time></trkpt>
<trkpt lat="46.644786000" lon="8.020411000"><ele></ele><time>2013-7-24T11:26:56Z</time></trkpt>
<trkpt lat="46.645672000" lon="8.021296000"><ele></ele><time>2013-7-24T11:26:59Z</time></trkpt>
<trkpt lat="46.646144000" lon="8.022215000"><ele></ele><time>2013-7-24T11:27:2Z</time></trkpt>
<trkpt lat="46.646774000" lon="8.022222000"><ele></ele><time>2013-7-24T11:27:5Z</time></trkpt>
<trkpt lat="46.647088000" lon="8.022277000"><ele></ele><time>2013-7-24T11:27:8Z</time></trkpt>
<trkpt lat="46.647186000" lon="8.022553000"><ele></ele><time>2013-7-24T11:27:11Z</time></trkpt>
<trkpt lat="46.647085000" lon="8.022917000"><ele></ele><time>2013-7-24T11:27:14Z</time></trkpt>
<trkpt lat="46.646427000" lon="8.023146000"><ele></ele><time>2013-7-24T11:27:17Z</time></trkpt>
<trkpt lat="46.646012000" lon="8.023455000"><ele></ele><time>2013-7-24T11:27:20Z</time></trkpt>
<trkpt lat="46.645817000" lon="8.024654000"><ele></ele><time>2013-7-24T11:27:23Z</time></trkpt>
<trkpt lat="46.645297000" lon="8.026072000"><ele></ele><time>2013-7-24T11:27:26Z</time></trkpt>
<trkpt lat="46.645268000" lon="8.026490000"><ele></ele><time>2013-7-24T11:27:29Z</time></trkpt>
<trkpt lat="46.645014000" lon="8.026762000"><ele></ele><time>2013-7-24T11:27:32Z</time></trkpt>
<trkpt lat="46.644537000" lon="8.026887000"><ele></ele><time>2013-7-24T11:27:35Z</time></trkpt>
<trkpt lat="46.644311000" lon="8.027067000"><ele></ele><time>2013-7-24T11:27:38Z</time></trkpt>
<trkpt lat="46.644245000" lon="8.027759000"><ele></ele><time>2013-7-24T11:27:41Z</time></trkpt>
<trkpt lat="46.643892000" lon="8.028121000"><ele></ele><time>2013-7-24T11:27:44Z</time></trkpt>
<trkpt lat="46.643549000" lon="8.028261000"><ele></ele><time>2013-7-24T11:27:47Z</time></trkpt>
<trkpt lat="46.642593000" lon="8.028799000"><ele></ele><time>2013-7-24T11:27:50Z</time></trkpt>
<trkpt lat="46.641423000" lon="8.028969000"><ele></ele><time>2013-7-24T11:27:53Z</time></trkpt>
<trkpt lat="46.640565000" lon="8.029561000"><ele></ele><time>2013-7-24T11:27:56Z</time></trkpt>
<trkpt lat="46.639896000" lon="8.030285000"><ele></ele><time>2013-7-24T11:27:59Z</time></trkpt>
<trkpt lat="46.639668000" lon="8.030844000"><ele></ele><time>2013-7-24T11:28:2Z</time></trkpt>
<trkpt lat="46.639253000" lon="8.031022000"><ele></ele><time>2013-7-24T11:28:5Z</time></trkpt>
<trkpt lat="46.639032000" lon="8.032025000"><ele></ele><time>2013-7-24T11:28:8Z</time></trkpt>
<trkpt lat="46.638930000" lon="8.032573000"><ele></ele><time>2013-7-24T11:28:11Z</time></trkpt>
<trkpt lat="46.638927000" lon="8.033226000"><ele></ele><time>2013-7-24T11:28:14Z</time></trkpt>
<trkpt lat="46.639523000" lon="8.034512000"><ele></ele><time>2013-7-24T11:28:17Z</time></trkpt>
<trkpt lat="46.639683000" lon="8.034880000"><ele></ele><time>2013-7-24T11:28:20Z</time></trkpt>
<trkpt lat="46.640021000" lon="8.035667000"><ele></ele><time>2013-7-24T11:28:23Z</time></trkpt>
<trkpt lat="46.640091000" lon="8.035903000"><ele></ele><time>2013-7-24T11:28:26Z</time></trkpt>
<trkpt lat="46.641195000" lon="8.036464000"><ele></ele><time>2013-7-24T11:28:29Z</time></trkpt>
<trkpt lat="46.641448000" lon="8.036284000"><ele></ele><time>2013-7-24T11:28:32Z</time></trkpt>
<trkpt lat="46.641478000" lon="8.035735000"><ele></ele><time>2013-7-24T11:28:35Z</time></trkpt>
<trkpt lat="46.641327000" lon="8.035264000"><ele></ele><time>2013-7-24T11:28:38Z</time></trkpt>
<trkpt lat="46.641267000" lon="8.034806000"><ele></ele><time>2013-7-24T11:28:41Z</time></trkpt>
<trkpt lat="46.641394000" lon="8.034585000"><ele></ele><time>2013-7-24T11:28:44Z</time></trkpt>
<trkpt lat="46.642020000" lon="8.035141000"><ele></ele><time>2013-7-24T11:28:47Z</time></trkpt>
<trkpt lat="46.642809000" lon="8.035659000"><ele></ele><time>2013-7-24T11:28:50Z</time></trkpt>
<trkpt lat="46.643635000" lon="8.036073000"><ele></ele><time>2013-7-24T11:28:53Z</time></trkpt>
<trkpt lat="46.644045000" lon="8.036730000"><ele></ele><time>2013-7-24T11:28:56Z</time></trkpt>
<trkpt lat="46.644700000" lon="8.037012000"><ele></ele><time>2013-7-24T11:28:59Z</time></trkpt>
<trkpt lat="46.645300000" lon="8.037658000"><ele></ele><time>2013-7-24T11:29:2Z</time></trkpt>
<trkpt lat="46.645839000" lon="8.037664000"><ele></ele><time>2013-7-24T11:29:5Z</time></trkpt>
<trkpt lat="46.646233000" lon="8.038087000"><ele></ele><time>2013-7-24T11:29:8Z</time></trkpt>
<trkpt lat="46.646391000" lon="8.038820000"><ele></ele><time>2013-7-24T11:29:11Z</time></trkpt>
<trkpt lat="46.646518000" lon="8.038730000"><ele></ele><time>2013-7-24T11:29:14Z</time></trkpt>
<trkpt lat="46.646648000" lon="8.037856000"><ele></ele><time>2013-7-24T11:29:17Z</time></trkpt>
<trkpt lat="46.646686000" lon="8.037491000"><ele></ele><time>2013-7-24T11:29:20Z</time></trkpt>
<trkpt lat="46.646499000" lon="8.037071000"><ele></ele><time>2013-7-24T11:29:23Z</time></trkpt>
<trkpt lat="46.646465000" lon="8.036757000"><ele></ele><time>2013-7-24T11:29:26Z</time></trkpt>
<trkpt lat="46.646304000" lon="8.036520000"><ele></ele><time>2013-7-24T11:29:29Z</time></trkpt>
<trkpt lat="46.646026000" lon="8.036373000"><ele></ele><time>2013-7-24T11:29:32Z</time></trkpt>
<trkpt lat="46.645652000" lon="8.035598000"><ele></ele><time>2013-7-24T11:29:35Z</time></trkpt>
<trkpt lat="46.645393000" lon="8.035308000"><ele></ele><time>2013-7-24T11:29:38Z</time></trkpt>
<trkpt lat="46.645373000" lon="8.033976000"><ele></ele><time>2013-7-24T11:29:41Z</time></trkpt>
<trkpt lat="46.645313000" lon="8.033387000"><ele></ele><time>2013-7-24T11:29:44Z</time></trkpt>
<trkpt lat="46.645377000" lon="8.033205000"><ele></ele><time>2013-7-24T11:29:47Z</time></trkpt>
<trkpt lat="46.645687000" lon="8.034123000"><ele></ele><time>2013-7-24T11:29:50Z</time></trkpt>
<trkpt lat="46.646034000" lon="8.034819000"><ele></ele><time>2013-7-24T11:29:53Z</time></trkpt>
<trkpt lat="46.646313000" lon="8.034822000"><ele></ele><time>2013-7-24T11:29:56Z</time></trkpt>
<trkpt lat="46.646952000" lon="8.034777000"><ele></ele><time>2013-7-24T11:29:59Z</time></trkpt>
<trkpt lat="46.647576000" lon="8.035894000"><ele></ele><time>2013-7-24T11:30:2Z</time></trkpt>
<trkpt lat="46.648549000" lon="8.037328000"><ele></ele><time>2013-7-24T11:30:5Z</time></trkpt>
<trkpt lat="46.649119000" lon="8.038484000"><ele></ele><time>2013-7-24T11:30:8Z</time></trkpt>
<trkpt lat="46.649143000" lon="8.039033000"><ele></ele><time>2013-7-24T11:30:11Z</time></trkpt>
<trkpt lat="46.649989000" lon="8.040558000"><ele></ele><time>2013-7-24T11:30:14Z</time></trkpt>
<trkpt lat="46.650803000" lon="8.043192000"><ele></ele><time>2013-7-24T11:30:17Z</time></trkpt>
<trkpt lat="46.650211000" lon="8.041161000"><ele></ele><time>2013-7-24T11:30:20Z</time></trkpt>
<trkpt lat="46.649927000" lon="8.040374000"><ele></ele><time>2013-7-24T11:30:23Z</time></trkpt>
<trkpt lat="46.649142000" lon="8.039124000"><ele></ele><time>2013-7-24T11:30:26Z</time></trkpt>
<trkpt lat="46.649119000" lon="8.038340000"><ele></ele><time>2013-7-24T11:30:29Z</time></trkpt>
<trkpt lat="46.647042000" lon="8.034830000"><ele></ele><time>2013-7-24T11:30:32Z</time></trkpt>
<trkpt lat="46.646286000" lon="8.034822000"><ele></ele><time>2013-7-24T11:30:35Z</time></trkpt>
<trkpt lat="46.646035000" lon="8.034675000"><ele></ele><time>2013-7-24T11:30:38Z</time></trkpt>
<trkpt lat="46.645874000" lon="8.034399000"><ele></ele><time>2013-7-24T11:30:41Z</time></trkpt>
<trkpt lat="46.645687000" lon="8.034097000"><ele></ele><time>2013-7-24T11:30:44Z</time></trkpt>
<trkpt lat="46.645377000" lon="8.033205000"><ele></ele><time>2013-7-24T11:30:47Z</time></trkpt>
<trkpt lat="46.645331000" lon="8.033413000"><ele></ele><time>2013-7-24T11:30:50Z</time></trkpt>
<trkpt lat="46.645382000" lon="8.033989000"><ele></ele><time>2013-7-24T11:30:53Z</time></trkpt>
<trkpt lat="46.645402000" lon="8.035347000"><ele></ele><time>2013-7-24T11:30:56Z</time></trkpt>
<trkpt lat="46.645697000" lon="8.035690000"><ele></ele><time>2013-7-24T11:30:59Z</time></trkpt>
<trkpt lat="46.645999000" lon="8.036360000"><ele></ele><time>2013-7-24T11:31:2Z</time></trkpt>
<trkpt lat="46.646277000" lon="8.036467000"><ele></ele><time>2013-7-24T11:31:5Z</time></trkpt>
<trkpt lat="46.646483000" lon="8.036796000"><ele></ele><time>2013-7-24T11:31:8Z</time></trkpt>
<trkpt lat="46.646490000" lon="8.037149000"><ele></ele><time>2013-7-24T11:31:11Z</time></trkpt>
<trkpt lat="46.646713000" lon="8.037530000"><ele></ele><time>2013-7-24T11:31:14Z</time></trkpt>
<trkpt lat="46.646639000" lon="8.037856000"><ele></ele><time>2013-7-24T11:31:17Z</time></trkpt>
<trkpt lat="46.646499000" lon="8.038743000"><ele></ele><time>2013-7-24T11:31:20Z</time></trkpt>
<trkpt lat="46.646319000" lon="8.038858000"><ele></ele><time>2013-7-24T11:31:23Z</time></trkpt>
<trkpt lat="46.646206000" lon="8.038060000"><ele></ele><time>2013-7-24T11:31:26Z</time></trkpt>
<trkpt lat="46.645794000" lon="8.037677000"><ele></ele><time>2013-7-24T11:31:29Z</time></trkpt>
<trkpt lat="46.645327000" lon="8.037659000"><ele></ele><time>2013-7-24T11:31:32Z</time></trkpt>
<trkpt lat="46.644664000" lon="8.037011000"><ele></ele><time>2013-7-24T11:31:35Z</time></trkpt>
<trkpt lat="46.644054000" lon="8.036769000"><ele></ele><time>2013-7-24T11:31:38Z</time></trkpt>
<trkpt lat="46.643635000" lon="8.036086000"><ele></ele><time>2013-7-24T11:31:41Z</time></trkpt>
<trkpt lat="46.641985000" lon="8.035127000"><ele></ele><time>2013-7-24T11:31:44Z</time></trkpt>
<trkpt lat="46.641394000" lon="8.034585000"><ele></ele><time>2013-7-24T11:31:47Z</time></trkpt>
<trkpt lat="46.641212000" lon="8.034844000"><ele></ele><time>2013-7-24T11:31:50Z</time></trkpt>
<trkpt lat="46.641439000" lon="8.036310000"><ele></ele><time>2013-7-24T11:31:53Z</time></trkpt>
<trkpt lat="46.641168000" lon="8.036463000"><ele></ele><time>2013-7-24T11:31:56Z</time></trkpt>
<trkpt lat="46.640064000" lon="8.035942000"><ele></ele><time>2013-7-24T11:31:59Z</time></trkpt>
<trkpt lat="46.639576000" lon="8.034604000"><ele></ele><time>2013-7-24T11:32:2Z</time></trkpt>
<trkpt lat="46.638982000" lon="8.032978000"><ele></ele><time>2013-7-24T11:32:5Z</time></trkpt>
<trkpt lat="46.639244000" lon="8.031074000"><ele></ele><time>2013-7-24T11:32:8Z</time></trkpt>
<trkpt lat="46.639778000" lon="8.030519000"><ele></ele><time>2013-7-24T11:32:11Z</time></trkpt>
<trkpt lat="46.640511000" lon="8.029651000"><ele></ele><time>2013-7-24T11:32:14Z</time></trkpt>
<trkpt lat="46.641405000" lon="8.028982000"><ele></ele><time>2013-7-24T11:32:17Z</time></trkpt>
<trkpt lat="46.642611000" lon="8.028838000"><ele></ele><time>2013-7-24T11:32:20Z</time></trkpt>
<trkpt lat="46.644163000" lon="8.027850000"><ele></ele><time>2013-7-24T11:32:23Z</time></trkpt>
<trkpt lat="46.644284000" lon="8.027198000"><ele></ele><time>2013-7-24T11:32:26Z</time></trkpt>
<trkpt lat="46.644438000" lon="8.026938000"><ele></ele><time>2013-7-24T11:32:29Z</time></trkpt>
<trkpt lat="46.645213000" lon="8.026659000"><ele></ele><time>2013-7-24T11:32:32Z</time></trkpt>
<trkpt lat="46.645279000" lon="8.026098000"><ele></ele><time>2013-7-24T11:32:35Z</time></trkpt>
<trkpt lat="46.645790000" lon="8.024602000"><ele></ele><time>2013-7-24T11:32:38Z</time></trkpt>
<trkpt lat="46.645549000" lon="8.024325000"><ele></ele><time>2013-7-24T11:32:41Z</time></trkpt>
<trkpt lat="46.645677000" lon="8.023960000"><ele></ele><time>2013-7-24T11:32:44Z</time></trkpt>
<trkpt lat="46.645515000" lon="8.023906000"><ele></ele><time>2013-7-24T11:32:47Z</time></trkpt>
<trkpt lat="46.644886000" lon="8.023769000"><ele></ele><time>2013-7-24T11:32:50Z</time></trkpt>
<trkpt lat="46.644473000" lon="8.023529000"><ele></ele><time>2013-7-24T11:32:53Z</time></trkpt>
<trkpt lat="46.644286000" lon="8.023305000"><ele></ele><time>2013-7-24T11:32:56Z</time></trkpt>
<trkpt lat="46.643593000" lon="8.023246000"><ele></ele><time>2013-7-24T11:32:59Z</time></trkpt>
<trkpt lat="46.643019000" lon="8.022965000"><ele></ele><time>2013-7-24T11:33:2Z</time></trkpt>
<trkpt lat="46.642390000" lon="8.022776000"><ele></ele><time>2013-7-24T11:33:5Z</time></trkpt>
<trkpt lat="46.641437000" lon="8.022713000"><ele></ele><time>2013-7-24T11:33:8Z</time></trkpt>
<trkpt lat="46.640620000" lon="8.022430000"><ele></ele><time>2013-7-24T11:33:11Z</time></trkpt>
<trkpt lat="46.640108000" lon="8.022294000"><ele></ele><time>2013-7-24T11:33:14Z</time></trkpt>
<trkpt lat="46.639538000" lon="8.022928000"><ele></ele><time>2013-7-24T11:33:17Z</time></trkpt>
<trkpt lat="46.639725000" lon="8.023348000"><ele></ele><time>2013-7-24T11:33:20Z</time></trkpt>
<trkpt lat="46.639660000" lon="8.023569000"><ele></ele><time>2013-7-24T11:33:23Z</time></trkpt>
<trkpt lat="46.639346000" lon="8.023474000"><ele></ele><time>2013-7-24T11:33:26Z</time></trkpt>
<trkpt lat="46.638718000" lon="8.023193000"><ele></ele><time>2013-7-24T11:33:29Z</time></trkpt>
<trkpt lat="46.638117000" lon="8.022821000"><ele></ele><time>2013-7-24T11:33:32Z</time></trkpt>
<trkpt lat="46.637391000" lon="8.022213000"><ele></ele><time>2013-7-24T11:33:35Z</time></trkpt>
<trkpt lat="46.636086000" lon="8.022381000"><ele></ele><time>2013-7-24T11:33:38Z</time></trkpt>
<trkpt lat="46.635870000" lon="8.022470000"><ele></ele><time>2013-7-24T11:33:41Z</time></trkpt>
<trkpt lat="46.635520000" lon="8.022284000"><ele></ele><time>2013-7-24T11:33:44Z</time></trkpt>
<trkpt lat="46.634790000" lon="8.022459000"><ele></ele><time>2013-7-24T11:33:47Z</time></trkpt>
<trkpt lat="46.634501000" lon="8.022821000"><ele></ele><time>2013-7-24T11:33:50Z</time></trkpt>
<trkpt lat="46.634122000" lon="8.022922000"><ele></ele><time>2013-7-24T11:33:53Z</time></trkpt>
<trkpt lat="46.633834000" lon="8.023049000"><ele></ele><time>2013-7-24T11:33:56Z</time></trkpt>
<trkpt lat="46.633831000" lon="8.023650000"><ele></ele><time>2013-7-24T11:33:59Z</time></trkpt>
<trkpt lat="46.633613000" lon="8.024013000"><ele></ele><time>2013-7-24T11:34:2Z</time></trkpt>
<trkpt lat="46.633576000" lon="8.024287000"><ele></ele><time>2013-7-24T11:34:5Z</time></trkpt>
<trkpt lat="46.633450000" lon="8.024286000"><ele></ele><time>2013-7-24T11:34:8Z</time></trkpt>
<trkpt lat="46.633452000" lon="8.023777000"><ele></ele><time>2013-7-24T11:34:11Z</time></trkpt>
<trkpt lat="46.633426000" lon="8.023737000"><ele></ele><time>2013-7-24T11:34:14Z</time></trkpt>
<trkpt lat="46.633263000" lon="8.023866000"><ele></ele><time>2013-7-24T11:34:17Z</time></trkpt>
<trkpt lat="46.633100000" lon="8.024099000"><ele></ele><time>2013-7-24T11:34:20Z</time></trkpt>
<trkpt lat="46.632974000" lon="8.024059000"><ele></ele><time>2013-7-24T11:34:23Z</time></trkpt>
<trkpt lat="46.632339000" lon="8.025057000"><ele></ele><time>2013-7-24T11:34:26Z</time></trkpt>
<trkpt lat="46.631645000" lon="8.025324000"><ele></ele><time>2013-7-24T11:34:29Z</time></trkpt>
<trkpt lat="46.631516000" lon="8.026054000"><ele></ele><time>2013-7-24T11:34:32Z</time></trkpt>
<trkpt lat="46.631072000" lon="8.026637000"><ele></ele><time>2013-7-24T11:34:35Z</time></trkpt>
<trkpt lat="46.630631000" lon="8.028434000"><ele></ele><time>2013-7-24T11:34:38Z</time></trkpt>
<trkpt lat="46.630444000" lon="8.029699000"><ele></ele><time>2013-7-24T11:34:41Z</time></trkpt>
<trkpt lat="46.630224000" lon="8.030467000"><ele></ele><time>2013-7-24T11:34:44Z</time></trkpt>
<trkpt lat="46.630050000" lon="8.031131000"><ele></ele><time>2013-7-24T11:34:47Z</time></trkpt>
<trkpt lat="46.630514000" lon="8.031789000"><ele></ele><time>2013-7-24T11:34:50Z</time></trkpt>
<trkpt lat="46.630870000" lon="8.032537000"><ele></ele><time>2013-7-24T11:34:53Z</time></trkpt>
<trkpt lat="46.631299000" lon="8.033116000"><ele></ele><time>2013-7-24T11:34:56Z</time></trkpt>
<trkpt lat="46.631549000" lon="8.033485000"><ele></ele><time>2013-7-24T11:34:59Z</time></trkpt>
<trkpt lat="46.631644000" lon="8.034308000"><ele></ele><time>2013-7-24T11:35:2Z</time></trkpt>
<trkpt lat="46.631956000" lon="8.034756000"><ele></ele><time>2013-7-24T11:35:5Z</time></trkpt>
<trkpt lat="46.632620000" lon="8.035155000"><ele></ele><time>2013-7-24T11:35:8Z</time></trkpt>
<trkpt lat="46.632590000" lon="8.035755000"><ele></ele><time>2013-7-24T11:35:11Z</time></trkpt>
<trkpt lat="46.632016000" lon="8.037042000"><ele></ele><time>2013-7-24T11:35:14Z</time></trkpt>
<trkpt lat="46.630944000" lon="8.037435000"><ele></ele><time>2013-7-24T11:35:17Z</time></trkpt>
<trkpt lat="46.630606000" lon="8.038437000"><ele></ele><time>2013-7-24T11:35:20Z</time></trkpt>
<trkpt lat="46.630285000" lon="8.037793000"><ele></ele><time>2013-7-24T11:35:23Z</time></trkpt>
<trkpt lat="46.629289000" lon="8.037390000"><ele></ele><time>2013-7-24T11:35:26Z</time></trkpt>
<trkpt lat="46.628406000" lon="8.037694000"><ele></ele><time>2013-7-24T11:35:29Z</time></trkpt>
<trkpt lat="46.627678000" lon="8.037412000"><ele></ele><time>2013-7-24T11:35:32Z</time></trkpt>
<trkpt lat="46.626783000" lon="8.036671000"><ele></ele><time>2013-7-24T11:35:35Z</time></trkpt>
<trkpt lat="46.625876000" lon="8.036256000"><ele></ele><time>2013-7-24T11:35:38Z</time></trkpt>
<trkpt lat="46.625223000" lon="8.035687000"><ele></ele><time>2013-7-24T11:35:41Z</time></trkpt>
<trkpt lat="46.624877000" lon="8.034770000"><ele></ele><time>2013-7-24T11:35:44Z</time></trkpt>
<trkpt lat="46.624790000" lon="8.034077000"><ele></ele><time>2013-7-24T11:35:47Z</time></trkpt>
<trkpt lat="46.624665000" lon="8.033893000"><ele></ele><time>2013-7-24T11:35:50Z</time></trkpt>
<trkpt lat="46.624593000" lon="8.033983000"><ele></ele><time>2013-7-24T11:35:53Z</time></trkpt>
<trkpt lat="46.624593000" lon="8.033983000"><ele></ele><time>2013-7-24T11:35:56Z</time></trkpt>
</trkseg></trk></gpx>